createdAt,value
2022-09-11T00:01:38.894Z,13.50
2022-09-11T00:04:05.815Z,13.52
2022-09-11T00:06:32.553Z,13.50
2022-09-11T00:09:01.753Z,13.49
2022-09-11T00:11:34.471Z,13.48
2022-09-11T00:14:01.401Z,13.48
2022-09-11T00:16:34.577Z,13.26
2022-09-11T00:19:07.312Z,13.45
2022-09-11T00:21:34.022Z,13.42
2022-09-11T00:24:00.936Z,13.39
2022-09-11T00:26:27.752Z,13.33
2022-09-11T00:28:54.822Z,13.25
2022-09-11T00:31:27.211Z,13.00
2022-09-11T00:33:54.272Z,13.14
2022-09-11T00:36:23.825Z,13.16
2022-09-11T00:38:51.086Z,13.07
2022-09-11T00:41:27.709Z,13.05
2022-09-11T00:43:59.041Z,13.10
2022-09-11T00:46:44.320Z,13.07
2022-09-11T00:49:50.928Z,12.85
2022-09-11T00:52:24.867Z,12.89
2022-09-11T00:55:05.305Z,12.95
2022-09-11T00:57:35.855Z,13.11
2022-09-11T01:00:04.718Z,13.19
2022-09-11T01:02:34.829Z,13.13
2022-09-11T01:05:03.798Z,13.17
2022-09-11T01:07:31.966Z,13.14
2022-09-11T01:09:59.151Z,12.94
2022-09-11T01:13:00.074Z,13.04
2022-09-11T01:15:35.936Z,12.86
2022-09-11T01:18:05.995Z,12.79
2022-09-11T01:20:50.997Z,12.65
2022-09-11T01:23:46.884Z,12.70
2022-09-11T01:26:31.905Z,12.71
2022-09-11T01:29:26.408Z,12.62
2022-09-11T01:32:19.622Z,12.66
2022-09-11T01:34:52.359Z,12.77
2022-09-11T01:37:27.249Z,12.81
2022-09-11T01:40:02.048Z,12.73
2022-09-11T01:42:36.111Z,12.71
2022-09-11T01:45:05.109Z,12.57
2022-09-11T01:47:34.851Z,12.37
2022-09-11T01:50:11.097Z,12.25
2022-09-11T01:53:00.300Z,12.32
2022-09-11T01:55:37.117Z,12.43
2022-09-11T01:58:09.085Z,12.52
2022-09-11T02:00:41.924Z,12.67
2022-09-11T02:03:22.685Z,12.75
2022-09-11T02:05:57.359Z,12.84
2022-09-11T02:08:30.746Z,12.83
2022-09-11T02:11:07.807Z,12.85
2022-09-11T02:14:03.981Z,12.86
2022-09-11T02:16:42.525Z,12.80
2022-09-11T02:19:12.486Z,12.86
2022-09-11T02:21:39.603Z,12.74
2022-09-11T02:24:08.504Z,12.84
2022-09-11T02:26:41.845Z,12.70
2022-09-11T02:29:08.951Z,12.83
2022-09-11T02:31:36.314Z,12.87
2022-09-11T02:34:03.449Z,12.98
2022-09-11T02:36:51.572Z,13.00
2022-09-11T02:39:33.676Z,13.00
2022-09-11T02:42:03.411Z,12.98
2022-09-11T02:44:42.338Z,12.88
2022-09-11T02:47:36.863Z,12.81
2022-09-11T02:50:33.667Z,12.75
2022-09-11T02:53:18.758Z,12.84
2022-09-11T02:56:06.855Z,12.86
2022-09-11T02:58:46.317Z,12.86
2022-09-11T03:01:13.050Z,12.69
2022-09-11T03:03:45.283Z,12.55
2022-09-11T03:06:17.601Z,12.71
2022-09-11T03:08:45.725Z,12.74
2022-09-11T03:11:12.728Z,12.80
2022-09-11T03:13:39.572Z,12.70
2022-09-11T03:16:08.304Z,12.63
2022-09-11T03:18:35.011Z,12.64
2022-09-11T03:21:01.851Z,12.60
2022-09-11T03:23:28.515Z,12.71
2022-09-11T03:25:55.413Z,12.71
2022-09-11T03:28:23.246Z,12.63
2022-09-11T03:30:50.623Z,12.77
2022-09-11T03:33:17.372Z,12.77
2022-09-11T03:35:44.552Z,12.81
2022-09-11T03:38:12.210Z,12.84
2022-09-11T03:40:42.464Z,12.90
2022-09-11T03:43:09.296Z,12.85
2022-09-11T03:45:35.921Z,12.79
2022-09-11T03:48:02.621Z,12.64
2022-09-11T03:50:29.345Z,12.71
2022-09-11T03:52:56.064Z,12.72
2022-09-11T03:55:22.680Z,12.68
2022-09-11T03:57:49.931Z,12.72
2022-09-11T04:00:16.625Z,12.37
2022-09-11T04:02:54.110Z,12.61
2022-09-11T04:05:30.955Z,12.39
2022-09-11T04:07:59.902Z,12.62
2022-09-11T04:10:27.763Z,12.56
2022-09-11T04:12:56.690Z,12.53
2022-09-11T04:15:23.327Z,12.69
2022-09-11T04:17:50.177Z,12.66
2022-09-11T04:20:16.923Z,12.53
2022-09-11T04:22:45.539Z,12.59
2022-09-11T04:25:13.012Z,12.74
2022-09-11T04:27:39.956Z,12.75
2022-09-11T04:30:10.065Z,12.66
2022-09-11T04:32:36.716Z,12.72
2022-09-11T04:35:03.609Z,12.73
2022-09-11T04:37:35.727Z,12.80
2022-09-11T04:40:03.478Z,12.75
2022-09-11T04:42:31.204Z,12.70
2022-09-11T04:44:58.080Z,12.70
2022-09-11T04:47:24.707Z,12.78
2022-09-11T04:49:51.369Z,12.90
2022-09-11T04:52:18.162Z,12.98
2022-09-11T04:54:44.841Z,12.95
2022-09-11T04:57:11.441Z,12.50
2022-09-11T04:59:39.123Z,12.87
2022-09-11T05:02:10.397Z,12.56
2022-09-11T05:04:40.476Z,12.86
2022-09-11T05:07:07.211Z,12.89
2022-09-11T05:09:35.043Z,12.61
2022-09-11T05:12:02.259Z,12.83
2022-09-11T05:14:31.992Z,12.79
2022-09-11T05:16:59.304Z,12.70
2022-09-11T05:19:28.289Z,12.65
2022-09-11T05:21:54.938Z,12.65
2022-09-11T05:24:22.609Z,12.60
2022-09-11T05:26:51.590Z,12.59
2022-09-11T05:29:18.326Z,12.46
2022-09-11T05:31:55.251Z,12.38
2022-09-11T05:34:21.921Z,12.72
2022-09-11T05:36:49.735Z,12.69
2022-09-11T05:39:19.169Z,12.98
2022-09-11T05:41:54.828Z,12.95
2022-09-11T05:44:28.194Z,12.83
2022-09-11T05:46:56.291Z,12.77
2022-09-11T05:49:24.052Z,13.08
2022-09-11T05:51:51.287Z,13.08
2022-09-11T05:54:17.900Z,13.08
2022-09-11T05:56:45.361Z,13.12
2022-09-11T05:59:19.407Z,13.22
2022-09-11T06:01:48.452Z,13.27
2022-09-11T06:04:21.825Z,13.16
2022-09-11T06:06:51.216Z,12.98
2022-09-11T06:09:18.771Z,13.04
2022-09-11T06:11:45.540Z,13.15
2022-09-11T06:14:12.156Z,13.21
2022-09-11T06:16:39.917Z,13.16
2022-09-11T06:19:11.304Z,13.19
2022-09-11T06:21:37.986Z,13.31
2022-09-11T06:24:10.897Z,13.36
2022-09-11T06:26:38.425Z,13.19
2022-09-11T06:29:05.052Z,13.01
2022-09-11T06:31:35.490Z,12.98
2022-09-11T06:34:02.123Z,13.09
2022-09-11T06:36:29.165Z,13.23
2022-09-11T06:38:58.780Z,13.20
2022-09-11T06:41:28.240Z,13.13
2022-09-11T06:44:03.470Z,13.14
2022-09-11T06:46:31.037Z,13.08
2022-09-11T06:48:59.899Z,13.12
2022-09-11T06:51:28.032Z,13.29
2022-09-11T06:53:57.661Z,13.46
2022-09-11T06:56:26.977Z,13.38
2022-09-11T06:58:53.785Z,13.28
2022-09-11T07:01:24.152Z,13.14
2022-09-11T07:03:56.222Z,13.40
2022-09-11T07:06:27.156Z,13.31
2022-09-11T07:08:57.752Z,13.58
2022-09-11T07:11:24.457Z,13.66
2022-09-11T07:13:51.755Z,13.78
2022-09-11T07:16:18.644Z,13.57
2022-09-11T07:18:52.282Z,13.87
2022-09-11T07:21:23.508Z,13.71
2022-09-11T07:23:58.897Z,13.60
2022-09-11T07:26:29.126Z,13.28
2022-09-11T07:29:02.219Z,13.20
2022-09-11T07:31:32.169Z,13.25
2022-09-11T07:33:59.309Z,13.19
2022-09-11T07:36:28.517Z,13.34
2022-09-11T07:38:55.298Z,13.28
2022-09-11T07:41:27.505Z,13.11
2022-09-11T07:43:59.468Z,13.11
2022-09-11T07:46:28.508Z,13.37
2022-09-11T07:48:55.462Z,13.02
2022-09-11T07:51:22.409Z,13.07
2022-09-11T07:53:51.348Z,13.10
2022-09-11T07:56:22.796Z,13.28
2022-09-11T07:58:51.178Z,13.32
2022-09-11T08:01:24.821Z,13.55
2022-09-11T08:03:56.888Z,13.71
2022-09-11T08:06:27.383Z,13.83
2022-09-11T08:08:59.771Z,14.02
2022-09-11T08:11:27.848Z,13.88
2022-09-11T08:13:55.865Z,13.46
2022-09-11T08:16:27.363Z,13.69
2022-09-11T08:18:57.593Z,13.70
2022-09-11T08:21:24.657Z,13.77
2022-09-11T08:23:51.651Z,13.32
2022-09-11T08:26:26.970Z,13.37
2022-09-11T08:28:56.207Z,13.18
2022-09-11T08:31:26.491Z,13.20
2022-09-11T08:33:56.060Z,13.12
2022-09-11T08:36:23.618Z,13.39
2022-09-11T08:38:52.075Z,13.52
2022-09-11T08:41:24.039Z,13.94
2022-09-11T08:43:55.723Z,13.41
2022-09-11T08:46:26.309Z,13.40
2022-09-11T08:49:17.600Z,13.90
2022-09-11T08:51:44.890Z,13.72
2022-09-11T08:54:26.090Z,14.35
2022-09-11T08:56:59.657Z,14.68
2022-09-11T09:00:03.905Z,14.99
2022-09-11T09:02:59.297Z,14.92
2022-09-11T09:06:04.707Z,14.67
2022-09-11T09:09:12.009Z,14.80
2022-09-11T09:11:53.917Z,14.54
2022-09-11T09:14:35.000Z,14.66
2022-09-11T09:17:27.281Z,14.41
2022-09-11T09:20:01.409Z,14.15
2022-09-11T09:22:45.440Z,14.48
2022-09-11T09:25:17.379Z,14.45
2022-09-11T09:28:14.517Z,14.46
2022-09-11T09:30:55.155Z,14.27
2022-09-11T09:33:51.041Z,14.10
2022-09-11T09:36:30.444Z,14.33
2022-09-11T09:38:59.331Z,14.47
2022-09-11T09:42:05.299Z,14.13
2022-09-11T09:44:50.542Z,13.08
2022-09-11T09:47:17.648Z,13.12
2022-09-11T09:49:45.167Z,13.65
2022-09-11T09:52:26.223Z,13.71
2022-09-11T09:54:56.333Z,13.53
2022-09-11T09:57:26.191Z,13.81
2022-09-11T10:00:01.933Z,14.06
2022-09-11T10:02:45.345Z,13.89
2022-09-11T10:05:16.371Z,14.03
2022-09-11T10:07:52.325Z,14.09
2022-09-11T10:10:39.660Z,14.20
2022-09-11T10:13:27.677Z,14.49
2022-09-11T10:15:57.648Z,14.47
2022-09-11T10:18:30.432Z,14.43
2022-09-11T10:21:32.292Z,13.93
2022-09-11T10:24:01.194Z,13.57
2022-09-11T10:26:29.595Z,13.56
2022-09-11T10:29:04.936Z,13.97
2022-09-11T10:31:31.655Z,13.94
2022-09-11T10:34:00.241Z,14.08
2022-09-11T10:36:29.881Z,14.07
2022-09-11T10:38:58.752Z,14.19
2022-09-11T10:41:27.185Z,14.19
2022-09-11T10:43:59.677Z,13.93
2022-09-11T10:46:41.230Z,14.00
2022-09-11T10:49:16.695Z,13.93
2022-09-11T10:51:58.948Z,13.89
2022-09-11T10:54:34.700Z,14.08
2022-09-11T10:57:23.045Z,14.20
2022-09-11T11:00:15.454Z,13.98
2022-09-11T11:02:52.146Z,14.34
2022-09-11T11:05:24.761Z,15.04
2022-09-11T11:08:29.159Z,14.69
2022-09-11T11:11:32.393Z,14.80
2022-09-11T11:14:36.094Z,14.52
2022-09-11T11:17:36.809Z,14.93
2022-09-11T11:20:21.120Z,15.20
2022-09-11T11:22:47.806Z,15.00
2022-09-11T11:25:29.390Z,15.10
2022-09-11T11:28:44.527Z,15.55
2022-09-11T11:31:39.371Z,15.51
2022-09-11T11:34:29.234Z,15.35
2022-09-11T11:37:15.005Z,15.22
2022-09-11T11:39:44.843Z,15.04
2022-09-11T11:42:24.727Z,15.01
2022-09-11T11:44:56.730Z,15.58
2022-09-11T11:47:30.358Z,15.20
2022-09-11T11:50:06.500Z,15.65
2022-09-11T11:52:33.084Z,15.80
2022-09-11T11:55:14.902Z,16.11
2022-09-11T11:57:47.016Z,16.19
2022-09-11T12:00:16.934Z,16.47
2022-09-11T12:02:51.703Z,16.11
2022-09-11T12:05:25.217Z,16.01
2022-09-11T12:07:52.420Z,16.02
2022-09-11T12:10:41.924Z,16.12
2022-09-11T12:13:14.633Z,16.39
2022-09-11T12:16:18.198Z,16.50
2022-09-11T12:19:13.028Z,16.54
2022-09-11T12:21:45.341Z,16.93
2022-09-11T12:24:14.232Z,16.91
2022-09-11T12:26:40.847Z,17.31
2022-09-11T12:29:10.727Z,17.64
2022-09-11T12:31:49.312Z,17.87
2022-09-11T12:34:23.959Z,17.78
2022-09-11T12:37:13.732Z,17.83
2022-09-11T12:39:50.544Z,17.42
2022-09-11T12:42:23.417Z,17.56
2022-09-11T12:44:50.079Z,17.69
2022-09-11T12:47:37.654Z,17.73
2022-09-11T12:50:04.336Z,18.14
2022-09-11T12:52:39.125Z,18.48
2022-09-11T12:55:32.760Z,18.67
2022-09-11T12:58:03.501Z,18.76
2022-09-11T13:00:40.024Z,18.84
2022-09-11T13:03:17.549Z,18.77
2022-09-11T13:05:52.548Z,18.04
2022-09-11T13:08:21.745Z,17.98
2022-09-11T13:10:48.476Z,18.24
2022-09-11T13:13:35.767Z,18.36
2022-09-11T13:16:22.636Z,18.01
2022-09-11T13:18:49.385Z,18.31
2022-09-11T13:21:19.571Z,18.68
2022-09-11T13:23:47.884Z,18.88
2022-09-11T13:26:24.010Z,19.10
2022-09-11T13:28:53.654Z,18.84
2022-09-11T13:31:44.590Z,18.96
2022-09-11T13:34:17.132Z,18.75
2022-09-11T13:36:44.670Z,18.68
2022-09-11T13:39:15.829Z,18.34
2022-09-11T13:41:43.653Z,18.23
2022-09-11T13:44:20.205Z,18.51
2022-09-11T13:46:51.882Z,18.69
2022-09-11T13:49:36.621Z,18.92
2022-09-11T13:52:05.349Z,18.84
2022-09-11T13:54:36.464Z,19.30
2022-09-11T13:57:03.146Z,19.15
2022-09-11T13:59:44.937Z,18.66
2022-09-11T14:02:50.701Z,18.30
2022-09-11T14:05:19.303Z,17.36
2022-09-11T14:07:59.907Z,17.48
2022-09-11T14:10:34.298Z,16.32
2022-09-11T14:13:21.829Z,16.07
2022-09-11T14:15:53.895Z,16.13
2022-09-11T14:18:52.787Z,15.83
2022-09-11T14:21:32.714Z,15.44
2022-09-11T14:24:00.136Z,15.46
2022-09-11T14:26:32.861Z,15.42
2022-09-11T14:29:21.585Z,15.71
2022-09-11T14:31:48.606Z,15.71
2022-09-11T14:34:16.788Z,16.03
2022-09-11T14:36:47.852Z,16.32
2022-09-11T14:39:23.219Z,16.24
2022-09-11T14:41:50.721Z,15.94
2022-09-11T14:44:17.903Z,15.91
2022-09-11T14:46:44.573Z,15.75
2022-09-11T14:49:11.264Z,15.53
2022-09-11T14:51:38.938Z,15.91
2022-09-11T14:54:05.852Z,15.71
2022-09-11T14:56:32.592Z,15.80
2022-09-11T14:58:59.785Z,16.20
2022-09-11T15:01:26.600Z,16.79
2022-09-11T15:03:53.287Z,16.52
2022-09-11T15:06:21.319Z,16.53
2022-09-11T15:08:48.010Z,16.62
2022-09-11T15:11:14.749Z,16.09
2022-09-11T15:13:57.891Z,15.82
2022-09-11T15:16:28.197Z,15.86
2022-09-11T15:18:54.766Z,15.87
2022-09-11T15:21:21.434Z,15.85
2022-09-11T15:23:48.081Z,16.16
2022-09-11T15:26:14.818Z,16.55
2022-09-11T15:28:41.446Z,16.29
2022-09-11T15:31:08.212Z,16.04
2022-09-11T15:33:34.844Z,15.70
2022-09-11T15:36:04.381Z,16.34
2022-09-11T15:38:31.831Z,16.28
2022-09-11T15:40:58.620Z,16.45
2022-09-11T15:43:33.051Z,16.53
2022-09-11T15:46:00.133Z,16.34
2022-09-11T15:48:26.802Z,15.64
2022-09-11T15:51:00.988Z,15.47
2022-09-11T15:53:28.815Z,15.38
2022-09-11T15:56:08.009Z,16.06
2022-09-11T15:58:36.221Z,15.65
2022-09-11T16:01:03.703Z,15.92
2022-09-11T16:03:31.086Z,16.33
2022-09-11T16:05:57.855Z,15.99
2022-09-11T16:08:24.732Z,16.12
2022-09-11T16:10:51.758Z,16.17
2022-09-11T16:13:18.916Z,16.15
2022-09-11T16:15:46.852Z,16.10
2022-09-11T16:18:13.808Z,15.84
2022-09-11T16:20:40.376Z,16.15
2022-09-11T16:23:07.835Z,15.90
2022-09-11T16:25:40.904Z,16.01
2022-09-11T16:28:08.566Z,15.86
2022-09-11T16:30:44.483Z,16.42
2022-09-11T16:33:13.317Z,16.67
2022-09-11T16:35:39.998Z,16.36
2022-09-11T16:38:07.837Z,16.29
2022-09-11T16:40:35.240Z,16.29
2022-09-11T16:43:03.026Z,16.40
2022-09-11T16:45:29.659Z,16.20
2022-09-11T16:47:59.142Z,15.43
2022-09-11T16:50:26.324Z,16.13
2022-09-11T16:52:53.139Z,15.95
2022-09-11T16:55:19.810Z,15.84
2022-09-11T16:57:46.487Z,14.96
2022-09-11T17:00:13.733Z,14.88
2022-09-11T17:02:40.797Z,15.19
2022-09-11T17:05:08.366Z,14.88
2022-09-11T17:07:35.701Z,14.64
2022-09-11T17:10:03.088Z,15.02
2022-09-11T17:12:29.824Z,15.06
2022-09-11T17:14:56.472Z,14.96
2022-09-11T17:17:23.198Z,15.21
2022-09-11T17:19:49.770Z,15.57
2022-09-11T17:22:17.274Z,15.84
2022-09-11T17:24:43.844Z,15.84
2022-09-11T17:27:10.541Z,15.75
2022-09-11T17:29:39.254Z,15.73
2022-09-11T17:32:27.277Z,15.41
2022-09-11T17:34:54.846Z,15.64
2022-09-11T17:37:21.428Z,15.62
2022-09-11T17:39:48.182Z,15.56
2022-09-11T17:42:15.369Z,15.50
2022-09-11T17:44:41.986Z,15.78
2022-09-11T17:47:08.952Z,15.89
2022-09-11T17:49:35.687Z,15.93
2022-09-11T17:52:02.539Z,15.92
2022-09-11T17:54:29.164Z,15.85
2022-09-11T17:56:55.811Z,15.91
2022-09-11T17:59:22.622Z,15.71
2022-09-11T18:01:49.387Z,15.68
2022-09-11T18:04:16.206Z,15.70
2022-09-11T18:06:42.790Z,15.74
2022-09-11T18:09:12.162Z,15.79
2022-09-11T18:11:40.466Z,15.72
2022-09-11T18:14:07.259Z,15.55
2022-09-11T18:16:34.177Z,15.63
2022-09-11T18:19:02.011Z,15.46
2022-09-11T18:21:28.600Z,15.53
2022-09-11T18:23:55.308Z,15.29
2022-09-11T18:26:30.656Z,14.89
2022-09-11T18:29:02.909Z,15.02
2022-09-11T18:31:30.866Z,15.13
2022-09-11T18:34:00.278Z,15.12
2022-09-11T18:36:29.506Z,15.14
2022-09-11T18:39:00.010Z,14.99
2022-09-11T18:41:28.226Z,14.66
2022-09-11T18:43:55.972Z,14.04
2022-09-11T18:46:23.310Z,14.46
2022-09-11T18:48:50.203Z,14.18
2022-09-11T18:51:18.616Z,14.00
2022-09-11T18:53:50.304Z,13.68
2022-09-11T18:56:16.993Z,13.73
2022-09-11T18:58:43.728Z,13.61
2022-09-11T19:01:14.503Z,13.59
2022-09-11T19:03:41.395Z,13.49
2022-09-11T19:06:10.877Z,13.47
2022-09-11T19:08:39.740Z,13.35
2022-09-11T19:11:15.991Z,13.42
2022-09-11T19:13:46.096Z,13.42
2022-09-11T19:16:13.445Z,12.45
2022-09-11T19:18:40.849Z,12.96
2022-09-11T19:21:11.761Z,13.01
2022-09-11T19:23:43.437Z,12.79
2022-09-11T19:26:12.992Z,12.74
2022-09-11T19:28:41.443Z,12.78
2022-09-11T19:31:10.051Z,12.71
2022-09-11T19:33:37.761Z,12.54
2022-09-11T19:36:36.172Z,12.70
2022-09-11T19:39:03.853Z,12.68
2022-09-11T19:41:36.807Z,12.63
2022-09-11T19:44:05.066Z,11.72
2022-09-11T19:46:33.664Z,12.62
2022-09-11T19:49:02.564Z,11.69
2022-09-11T19:51:31.800Z,12.22
2022-09-11T19:54:00.815Z,12.01
2022-09-11T19:56:28.357Z,12.08
2022-09-11T19:58:55.638Z,12.27
2022-09-11T20:01:23.668Z,12.43
2022-09-11T20:03:52.280Z,12.39
2022-09-11T20:06:20.413Z,12.41
2022-09-11T20:08:48.874Z,12.29
2022-09-11T20:11:19.282Z,12.28
2022-09-11T20:13:46.065Z,12.22
2022-09-11T20:16:18.773Z,12.16
2022-09-11T20:18:46.013Z,12.06
2022-09-11T20:21:15.099Z,12.13
2022-09-11T20:23:43.789Z,12.05
2022-09-11T20:26:16.958Z,12.06
2022-09-11T20:28:45.958Z,11.92
2022-09-11T20:31:14.035Z,11.78
2022-09-11T20:33:41.149Z,11.53
2022-09-11T20:36:07.838Z,11.31
2022-09-11T20:38:35.023Z,11.08
2022-09-11T20:41:10.449Z,11.19
2022-09-11T20:43:37.158Z,11.41
2022-09-11T20:46:04.224Z,11.57
2022-09-11T20:48:31.707Z,11.68
2022-09-11T20:51:03.093Z,11.41
2022-09-11T20:53:29.783Z,11.57
2022-09-11T20:56:10.876Z,11.64
2022-09-11T20:58:38.487Z,11.65
2022-09-11T21:01:07.421Z,11.60
2022-09-11T21:03:34.536Z,11.18
2022-09-11T21:06:08.523Z,11.20
2022-09-11T21:08:36.107Z,11.31
2022-09-11T21:11:06.364Z,11.34
2022-09-11T21:13:38.118Z,11.39
2022-09-11T21:16:09.865Z,11.37
2022-09-11T21:18:37.629Z,11.35
2022-09-11T21:21:04.611Z,11.33
2022-09-11T21:23:31.533Z,11.35
2022-09-11T21:25:58.271Z,11.32
2022-09-11T21:28:24.989Z,11.35
2022-09-11T21:30:51.601Z,11.34
2022-09-11T21:33:18.603Z,11.27
2022-09-11T21:35:49.980Z,11.11
2022-09-11T21:38:16.595Z,11.09
2022-09-11T21:40:43.168Z,11.09
2022-09-11T21:43:09.871Z,11.11
2022-09-11T21:45:36.498Z,11.14
2022-09-11T21:48:03.312Z,10.89
2022-09-11T21:50:30.174Z,10.97
2022-09-11T21:52:56.925Z,10.66
2022-09-11T21:55:23.533Z,10.73
2022-09-11T21:57:50.564Z,10.67
2022-09-11T22:00:17.161Z,10.72
2022-09-11T22:02:43.861Z,10.83
2022-09-11T22:05:10.635Z,10.76
2022-09-11T22:07:37.403Z,10.69
2022-09-11T22:10:06.537Z,10.55
2022-09-11T22:12:34.803Z,10.14
2022-09-11T22:15:01.779Z,10.26
2022-09-11T22:17:28.685Z,9.81
2022-09-11T22:19:55.361Z,9.98
2022-09-11T22:22:22.045Z,10.04
2022-09-11T22:24:48.628Z,9.94
2022-09-11T22:27:15.520Z,10.00
2022-09-11T22:29:46.816Z,9.89
2022-09-11T22:32:13.780Z,10.01
2022-09-11T22:34:40.446Z,10.20
2022-09-11T22:37:07.164Z,10.34
2022-09-11T22:39:33.760Z,10.29
2022-09-11T22:42:00.647Z,10.22
2022-09-11T22:44:27.296Z,10.33
2022-09-11T22:46:54.136Z,10.19
2022-09-11T22:49:20.863Z,10.21
2022-09-11T22:51:47.731Z,10.40
2022-09-11T22:54:14.421Z,10.33
2022-09-11T22:56:41.220Z,10.09
2022-09-11T22:59:08.209Z,10.10
2022-09-11T23:01:35.624Z,10.11
2022-09-11T23:04:02.720Z,10.10
2022-09-11T23:06:29.364Z,10.18
2022-09-11T23:08:56.399Z,10.24
2022-09-11T23:11:23.198Z,10.25
2022-09-11T23:13:50.227Z,10.17
2022-09-11T23:16:22.796Z,10.15
2022-09-11T23:18:57.078Z,9.96
2022-09-11T23:21:24.324Z,9.83
2022-09-11T23:23:54.540Z,9.78
2022-09-11T23:26:22.737Z,9.73
2022-09-11T23:28:49.859Z,9.68
2022-09-11T23:31:22.366Z,9.67
2022-09-11T23:33:49.303Z,9.66
2022-09-11T23:36:16.268Z,9.74
2022-09-11T23:38:44.312Z,9.67
2022-09-11T23:41:11.048Z,9.49
2022-09-11T23:43:37.832Z,9.30
2022-09-11T23:46:04.528Z,8.96
2022-09-11T23:48:31.365Z,8.83
2022-09-11T23:50:58.053Z,9.17
2022-09-11T23:53:24.771Z,9.09
2022-09-11T23:55:51.500Z,9.08
2022-09-11T23:58:18.187Z,9.07
